Time;durP1;ratioP1;P1;durP2;ratioP2;P2;SDS_P1;SDS_P2;PMS_P1;PMS_P2;Temp;Humidity;BMP_temperature;BMP_pressure;BME280_temperature;BME280_humidity;BME280_pressure;Samples;Min_cycle;Max_cycle;Signal;HPM_P1;HPM_P2
2022/06/19 00:00:52;;;;;;;2.98;2.60;;;;;;;19.73;56.07;98704.10;1767310;81;27485;-56
2022/06/19 00:03:34;;;;;;;3.50;2.55;;;;;;;19.73;55.91;98706.88;1767316;81;25638;-58
2022/06/19 00:06:01;;;;;;;3.27;2.70;;;;;;;19.72;55.87;98706.68;1767595;81;25731;-57
2022/06/19 00:08:29;;;;;;;4.28;2.30;;;;;;;19.69;55.95;98704.65;1767429;81;26006;-56
2022/06/19 00:10:56;;;;;;;2.47;2.27;;;;;;;19.66;56.27;98699.84;1767600;81;25558;-57
2022/06/19 00:13:22;;;;;;;3.75;2.77;;;;;;;19.63;56.14;98702.75;1767502;81;27604;-57
2022/06/19 00:15:48;;;;;;;3.08;2.35;;;;;;;19.61;56.12;98704.31;1767628;81;25637;-56
2022/06/19 00:18:14;;;;;;;3.37;2.22;;;;;;;19.59;56.18;98703.88;1767139;81;25678;-57
2022/06/19 00:20:41;;;;;;;3.30;2.55;;;;;;;19.55;56.23;98701.06;1767443;80;26047;-57
2022/06/19 00:23:08;;;;;;;2.40;2.20;;;;;;;19.51;56.34;98705.16;1767196;80;25412;-57
2022/06/19 00:25:35;;;;;;;4.10;2.47;;;;;;;19.50;56.59;98695.81;1767710;81;27464;-56
2022/06/19 00:28:02;;;;;;;2.85;2.20;;;;;;;19.46;56.60;98694.38;1767282;81;25427;-57
2022/06/19 00:30:28;;;;;;;4.08;2.83;;;;;;;19.45;56.54;98685.81;1767203;81;25754;-56
2022/06/19 00:32:54;;;;;;;3.20;2.62;;;;;;;19.41;56.54;98680.80;1767332;80;26067;-57
2022/06/19 00:35:20;;;;;;;2.70;2.10;;;;;;;19.40;56.70;98682.77;1767714;81;25439;-57
2022/06/19 00:37:47;;;;;;;2.30;2.10;;;;;;;19.39;56.93;98678.97;1767221;81;27505;-57
2022/06/19 00:40:14;;;;;;;5.75;2.35;;;;;;;19.39;57.13;98680.36;1767057;81;25637;-57
2022/06/19 00:42:40;;;;;;;2.62;2.20;;;;;;;19.37;56.75;98678.56;1767402;81;25750;-57
2022/06/19 00:45:28;;;;;;;4.50;2.40;;;;;;;19.35;56.77;98673.38;1767431;81;25988;-56
2022/06/19 00:47:54;;;;;;;4.12;2.80;;;;;;;19.34;56.86;98678.70;1767378;80;25460;-59
2022/06/19 00:50:31;;;;;;;4.65;2.58;;;;;;;19.31;57.06;98675.27;1767510;81;27402;-61
2022/06/19 00:52:58;;;;;;;2.70;2.30;;;;;;;19.29;56.95;98674.25;1771001;80;25845;-61
2022/06/19 00:55:32;;;;;;;3.27;2.50;;;;;;;19.27;57.21;98677.20;1775389;80;25479;-63
2022/06/19 00:58:06;;;;;;;2.75;2.42;;;;;;;19.22;57.35;98674.15;1775391;80;26005;-62
2022/06/19 01:00:34;;;;;;;4.72;2.50;;;;;;;19.20;57.53;98674.31;1774845;80;25743;-60
2022/06/19 01:03:05;;;;;;;3.20;2.83;;;;;;;19.17;57.39;98659.98;1775328;80;27606;-59
2022/06/19 01:05:33;;;;;;;3.00;2.15;;;;;;;19.17;57.92;98657.20;1774842;80;25474;-62
2022/06/19 01:08:00;;;;;;;2.40;2.20;;;;;;;19.15;57.51;98662.92;1753637;80;25591;-58
2022/06/19 01:10:27;;;;;;;4.40;2.50;;;;;;;19.15;57.81;98658.77;1775171;80;26002;-63
2022/06/19 01:12:55;;;;;;;3.00;2.40;;;;;;;19.14;57.59;98662.72;1775354;80;25725;-62
2022/06/19 01:15:25;;;;;;;3.00;2.50;;;;;;;19.13;57.73;98654.97;1775148;80;27503;-61
2022/06/19 01:18:02;;;;;;;3.85;2.17;;;;;;;19.12;57.62;98653.38;1775217;80;25468;-62
2022/06/19 01:20:44;;;;;;;2.90;2.37;;;;;;;19.09;57.90;98648.56;1775518;80;25749;-62
2022/06/19 01:23:35;;;;;;;3.35;2.30;;;;;;;19.09;57.80;98651.34;1775226;80;26219;-60
2022/06/19 01:26:05;;;;;;;2.58;1.90;;;;;;;19.06;57.81;98641.72;1718995;83;25825;-61
2022/06/19 01:28:56;;;;;;;2.85;2.05;;;;;;;19.05;58.03;98636.54;1719419;83;27332;-56
2022/06/19 01:31:36;;;;;;;1.95;1.85;;;;;;;19.03;57.95;98638.30;1719081;83;25800;-56
2022/06/19 01:34:35;;;;;;;3.90;2.30;;;;;;;19.03;57.99;98637.52;1711806;83;25777;-56
2022/06/19 01:37:20;;;;;;;3.83;2.50;;;;;;;19.02;58.25;98637.28;1717157;83;25675;-56
2022/06/19 01:40:08;;;;;;;5.85;2.72;;;;;;;19.00;57.89;98635.48;1713828;83;25817;-56
2022/06/19 01:42:37;;;;;;;4.95;2.80;;;;;;;18.98;57.94;98644.19;1709679;83;27677;-56
2022/06/19 01:45:09;;;;;;;2.50;2.30;;;;;;;18.98;58.20;98631.69;1719197;83;25915;-58
2022/06/19 01:47:41;;;;;;;4.33;2.60;;;;;;;18.96;58.28;98637.37;1719384;83;25702;-61
2022/06/19 01:50:29;;;;;;;4.78;2.50;;;;;;;18.94;58.29;98637.17;1719197;83;26200;-56
2022/06/19 01:53:09;;;;;;;3.27;2.50;;;;;;;18.94;58.46;98629.42;1711721;83;26124;-56
2022/06/19 01:55:35;;;;;;;3.77;2.80;;;;;;;18.90;58.51;98626.59;1697557;84;28255;-57
2022/06/19 01:58:03;;;;;;;3.00;2.60;;;;;;;18.85;59.07;98622.73;1697466;84;26470;-56
2022/06/19 02:00:32;;;;;;;2.98;2.50;;;;;;;18.83;59.06;98624.28;1697317;84;25498;-56
2022/06/19 02:03:09;;;;;;;5.90;3.17;;;;;;;18.78;59.37;98619.27;1711633;82;26124;-56
2022/06/19 02:05:38;;;;;;;4.22;3.12;;;;;;;18.78;59.02;98626.78;1734539;82;25579;-56
2022/06/19 02:08:06;;;;;;;4.65;3.00;;;;;;;18.76;59.32;98622.17;1734257;82;27345;-56
2022/06/19 02:10:37;;;;;;;2.70;2.35;;;;;;;18.74;59.36;98623.94;1734112;82;25697;-63
2022/06/19 02:13:03;;;;;;;3.15;2.50;;;;;;;18.71;59.96;98614.17;1734493;82;25416;-55
2022/06/19 02:15:32;;;;;;;2.92;2.60;;;;;;;18.69;59.75;98618.11;1734286;82;26854;-59
2022/06/19 02:18:00;;;;;;;3.15;2.50;;;;;;;18.67;60.16;98608.55;1734389;82;25630;-61
2022/06/19 02:20:26;;;;;;;3.98;3.20;;;;;;;18.66;59.93;98606.37;1734217;82;28233;-61
2022/06/19 02:22:52;;;;;;;4.42;2.90;;;;;;;18.65;59.84;98607.53;1734200;82;25435;-63
2022/06/19 02:25:18;;;;;;;4.30;2.60;;;;;;;18.67;60.00;98608.55;1734315;82;25618;-60
2022/06/19 02:27:44;;;;;;;5.20;2.85;;;;;;;18.68;59.95;98605.98;1734250;82;26019;-61
2022/06/19 02:30:13;;;;;;;3.25;2.60;;;;;;;18.67;59.92;98597.45;1734372;82;25903;-61
2022/06/19 02:32:49;;;;;;;4.17;2.85;;;;;;;18.68;60.11;98604.59;1734216;82;27574;-62
2022/06/19 02:35:23;;;;;;;4.30;2.67;;;;;;;18.68;59.95;98604.59;1734156;82;25550;-61
2022/06/19 02:37:53;;;;;;;4.87;2.95;;;;;;;18.68;60.05;98610.14;1734166;82;25596;-60
2022/06/19 02:40:56;;;;;;;4.75;3.10;;;;;;;18.65;59.95;98610.91;1734362;82;26031;-62
2022/06/19 02:43:27;;;;;;;3.17;2.85;;;;;;;18.63;60.23;98609.89;1734172;82;25566;-63
2022/06/19 02:45:53;;;;;;;3.85;3.10;;;;;;;18.63;60.06;98610.47;1734376;82;27354;-61
2022/06/19 02:48:27;;;;;;;5.00;3.05;;;;;;;18.62;60.21;98613.83;1730068;82;26277;-61
2022/06/19 02:50:57;;;;;;;5.65;2.80;;;;;;;18.60;60.43;98616.76;1734240;82;25662;-63
2022/06/19 02:53:25;;;;;;;4.22;2.87;;;;;;;18.59;60.49;98623.49;1748411;81;26634;-60
2022/06/19 02:55:52;;;;;;;4.47;3.22;;;;;;;18.57;60.66;98626.63;1769626;81;25397;-56
2022/06/19 02:58:19;;;;;;;4.55;2.70;;;;;;;18.57;60.67;98629.41;1769933;80;27393;-56
2022/06/19 03:00:51;;;;;;;3.30;2.80;;;;;;;18.59;60.81;98635.38;1769394;81;25605;-56
2022/06/19 03:03:32;;;;;;;4.70;2.70;;;;;;;18.61;60.90;98626.68;1769553;81;25623;-56
2022/06/19 03:05:58;;;;;;;4.65;3.10;;;;;;;18.63;60.79;98634.88;1769524;81;26588;-56
2022/06/19 03:08:24;;;;;;;3.62;2.80;;;;;;;18.64;60.80;98631.49;1769881;81;25642;-57
2022/06/19 03:10:50;;;;;;;5.92;3.00;;;;;;;18.62;61.10;98630.47;1769947;80;28318;-56
2022/06/19 03:13:21;;;;;;;3.98;2.92;;;;;;;18.61;60.97;98626.68;1769693;81;25649;-57
2022/06/19 03:15:50;;;;;;;4.17;3.00;;;;;;;18.61;60.96;98633.05;1769764;80;25673;-56
2022/06/19 03:18:16;;;;;;;4.50;3.02;;;;;;;18.60;61.37;98624.52;1761068;80;26767;-56
2022/06/19 03:20:42;;;;;;;4.40;2.90;;;;;;;18.62;61.19;98620.77;1769378;80;25393;-56
2022/06/19 03:23:09;;;;;;;5.33;2.95;;;;;;;18.64;61.00;98619.00;1769852;80;27405;-56
2022/06/19 03:25:35;;;;;;;5.65;2.92;;;;;;;18.68;61.03;98623.45;1769534;81;25585;-59
2022/06/19 03:28:01;;;;;;;3.75;2.42;;;;;;;18.72;60.87;98616.58;1769814;81;25730;-57
2022/06/19 03:30:28;;;;;;;4.33;2.70;;;;;;;18.77;60.96;98619.64;1770045;80;25649;-56
2022/06/19 03:32:54;;;;;;;3.15;2.72;;;;;;;18.79;60.78;98616.70;1769833;81;25667;-57
2022/06/19 03:35:21;;;;;;;5.28;2.80;;;;;;;18.86;60.64;98619.38;1769761;81;28169;-63
2022/06/19 03:37:47;;;;;;;4.10;2.77;;;;;;;18.92;60.47;98617.90;1769994;80;25740;-60
2022/06/19 03:40:14;;;;;;;6.45;2.77;;;;;;;18.96;60.45;98615.98;1770050;80;25418;-56
2022/06/19 03:42:40;;;;;;;5.78;3.08;;;;;;;19.03;60.81;98614.70;1769626;80;27221;-56
2022/06/19 03:45:08;;;;;;;5.58;3.52;;;;;;;19.08;60.37;98616.39;1770090;80;25482;-56
2022/06/19 03:47:34;;;;;;;6.33;3.72;;;;;;;19.15;60.07;98617.09;1769941;81;27298;-62
2022/06/19 03:50:02;;;;;;;3.85;3.15;;;;;;;19.23;59.93;98618.80;1748078;81;25812;-61
2022/06/19 03:52:29;;;;;;;5.95;3.02;;;;;;;19.31;59.63;98615.54;1769975;80;25712;-61
2022/06/19 03:54:55;;;;;;;2.83;2.47;;;;;;;19.39;59.79;98616.45;1774767;80;26704;-62
2022/06/19 03:57:21;;;;;;;4.08;2.58;;;;;;;19.49;59.54;98618.57;1775662;80;25558;-62
2022/06/19 03:59:47;;;;;;;4.47;2.80;;;;;;;19.57;59.47;98615.31;1775867;80;27422;-63
2022/06/19 04:02:13;;;;;;;5.12;2.52;;;;;;;19.68;59.21;98617.66;1775748;80;25665;-64
2022/06/19 04:04:39;;;;;;;2.75;2.10;;;;;;;19.77;58.94;98615.98;1775633;80;25731;-62
2022/06/19 04:07:09;;;;;;;4.72;2.55;;;;;;;19.86;59.05;98613.52;1775319;80;28128;-58
2022/06/19 04:09:35;;;;;;;3.58;2.52;;;;;;;19.96;58.99;98612.03;1775984;80;25557;-62
2022/06/19 04:12:01;;;;;;;4.65;2.37;;;;;;;20.11;59.26;98618.59;1775942;80;27550;-63
2022/06/19 04:14:27;;;;;;;3.30;2.80;;;;;;;20.25;59.01;98618.77;1775633;80;25471;-62
2022/06/19 04:16:53;;;;;;;3.80;2.40;;;;;;;20.37;58.68;98624.66;1775406;80;25725;-63
2022/06/19 04:19:19;;;;;;;4.22;2.83;;;;;;;20.48;58.70;98621.17;1775937;80;25960;-61
2022/06/19 04:21:46;;;;;;;3.95;2.67;;;;;;;20.60;59.29;98618.12;1775361;80;25565;-62
2022/06/19 04:24:16;;;;;;;3.62;2.47;;;;;;;20.69;58.46;98606.08;1775725;80;28321;-56
2022/06/19 04:26:43;;;;;;;3.20;2.52;;;;;;;20.79;57.76;98605.17;1775688;80;25419;-56
2022/06/19 04:29:13;;;;;;;3.30;2.47;;;;;;;20.89;57.24;98614.78;1775828;80;25639;-56
2022/06/19 04:31:40;;;;;;;4.33;2.83;;;;;;;20.99;57.38;98604.38;1775489;80;26051;-56
2022/06/19 04:34:06;;;;;;;5.97;2.72;;;;;;;21.09;57.66;98611.78;1775824;80;25637;-57
2022/06/19 04:36:32;;;;;;;5.33;2.52;;;;;;;21.23;57.88;98607.72;1775718;80;28183;-57
2022/06/19 04:38:59;;;;;;;3.12;2.10;;;;;;;21.35;56.67;98602.42;1775674;80;25447;-57
2022/06/19 04:41:33;;;;;;;3.83;2.50;;;;;;;21.44;55.86;98602.88;1775710;80;25830;-56
2022/06/19 04:44:00;;;;;;;3.95;2.10;;;;;;;21.49;56.13;98601.70;1774563;80;26476;-57
2022/06/19 04:46:27;;;;;;;2.72;2.02;;;;;;;21.56;55.91;98600.34;1775267;80;25670;-56
2022/06/19 04:48:54;;;;;;;4.42;1.90;;;;;;;21.61;54.87;98594.19;1775741;80;27394;-57
2022/06/19 04:51:20;;;;;;;5.10;2.47;;;;;;;21.64;55.13;98588.64;1775639;80;25491;-60
2022/06/19 04:53:46;;;;;;;2.83;2.15;;;;;;;21.71;54.70;98589.28;1773176;80;25713;-57
2022/06/19 04:56:15;;;;;;;5.08;2.20;;;;;;;21.78;55.05;98590.73;1767274;81;26227;-57
2022/06/19 04:58:42;;;;;;;3.65;2.22;;;;;;;21.84;54.52;98586.19;1767405;81;25661;-63
2022/06/19 05:01:24;;;;;;;4.45;2.15;;;;;;;21.91;54.61;98588.99;1767305;81;27925;-62
2022/06/19 05:03:54;;;;;;;3.20;2.35;;;;;;;21.97;54.39;98583.83;1766998;81;26005;-63
2022/06/19 05:06:21;;;;;;;2.87;1.95;;;;;;;22.03;54.12;98587.25;1767585;81;25408;-56
2022/06/19 05:08:48;;;;;;;2.20;1.80;;;;;;;22.15;53.41;98581.08;1767131;81;26284;-56
2022/06/19 05:11:15;;;;;;;2.77;1.98;;;;;;;22.22;53.12;98577.52;1767169;81;25546;-56
2022/06/19 05:13:41;;;;;;;2.30;1.82;;;;;;;22.25;53.21;98579.53;1767544;81;28096;-58
2022/06/19 05:16:13;;;;;;;1.95;1.72;;;;;;;22.33;53.27;98569.95;1767319;81;25735;-57
2022/06/19 05:18:39;;;;;;;3.67;2.10;;;;;;;22.41;52.22;98576.35;1766531;81;25693;-63
2022/06/19 05:21:06;;;;;;;3.42;2.00;;;;;;;22.42;52.52;98574.56;1767496;81;25619;-63
2022/06/19 05:23:42;;;;;;;3.87;2.20;;;;;;;22.51;52.78;98572.77;1767422;81;25459;-60
2022/06/19 05:26:13;;;;;;;4.70;2.10;;;;;;;22.62;52.68;98568.63;1766561;81;27393;-61
2022/06/19 05:28:39;;;;;;;2.10;1.90;;;;;;;22.80;52.43;98558.06;1767531;81;25676;-61
2022/06/19 05:31:05;;;;;;;2.10;1.90;;;;;;;22.96;51.64;98554.84;1767124;81;25410;-61
2022/06/19 05:33:34;;;;;;;3.27;1.90;;;;;;;23.10;52.21;98552.64;1767519;81;26155;-63
2022/06/19 05:36:01;;;;;;;2.87;1.70;;;;;;;23.26;51.53;98553.59;1767179;81;25602;-61
2022/06/19 05:38:27;;;;;;;2.72;1.90;;;;;;;23.34;51.49;98560.58;1767395;81;28220;-60
2022/06/19 05:40:57;;;;;;;3.35;1.67;;;;;;;23.45;51.16;98566.18;1767279;81;26083;-60
2022/06/19 05:43:25;;;;;;;2.30;1.85;;;;;;;23.61;51.66;98568.52;1767418;81;25698;-59
2022/06/19 05:45:54;;;;;;;2.58;2.05;;;;;;;23.70;50.53;98568.87;1767553;81;26132;-60
2022/06/19 05:48:20;;;;;;;4.05;1.85;;;;;;;23.66;50.13;98571.68;1767501;81;25669;-62
2022/06/19 05:51:02;;;;;;;3.83;1.87;;;;;;;23.71;50.77;98573.88;1767403;81;28269;-56
2022/06/19 05:53:30;;;;;;;2.47;1.80;;;;;;;23.84;49.69;98568.63;1767503;80;25773;-57
2022/06/19 05:55:57;;;;;;;3.80;1.80;;;;;;;23.85;50.08;98565.41;1775258;80;25660;-59
2022/06/19 05:58:23;;;;;;;1.75;1.65;;;;;;;23.96;50.18;98558.38;1775393;80;26143;-57
2022/06/19 06:00:50;;;;;;;2.72;1.75;;;;;;;24.04;50.18;98561.94;1775328;80;25688;-57
2022/06/19 06:03:18;;;;;;;3.15;1.82;;;;;;;24.09;49.07;98565.69;1775274;80;27377;-57
2022/06/19 06:05:46;;;;;;;1.98;1.55;;;;;;;24.10;48.77;98564.50;1775123;80;26072;-57
2022/06/19 06:08:14;;;;;;;2.85;1.50;;;;;;;24.13;49.54;98565.08;1775350;80;26465;-57
2022/06/19 06:10:41;;;;;;;2.00;1.52;;;;;;;24.15;48.21;98554.28;1775204;80;25939;-57
2022/06/19 06:13:08;;;;;;;2.52;1.80;;;;;;;24.24;49.05;98547.45;1775567;80;25541;-57
2022/06/19 06:15:35;;;;;;;3.20;1.75;;;;;;;24.34;48.83;98542.97;1789309;79;27492;-58
2022/06/19 06:18:02;;;;;;;2.15;1.60;;;;;;;24.43;48.74;98538.51;1780578;80;26933;-63
2022/06/19 06:20:30;;;;;;;3.15;1.75;;;;;;;24.40;48.27;98538.52;1771786;80;25650;-59
2022/06/19 06:22:57;;;;;;;2.58;1.80;;;;;;;24.47;48.70;98530.09;1769478;80;25991;-62
2022/06/19 06:25:23;;;;;;;2.00;1.70;;;;;;;24.59;48.31;98534.98;1769445;81;25657;-61
2022/06/19 06:27:50;;;;;;;3.98;1.80;;;;;;;24.68;48.53;98524.91;1769111;81;27424;-63
2022/06/19 06:30:17;;;;;;;2.20;1.70;;;;;;;24.82;48.48;98524.59;1769374;81;25710;-63
2022/06/19 06:32:42;;;;;;;3.60;1.90;;;;;;;24.95;48.06;98515.70;1770664;80;25427;-57
2022/06/19 06:35:10;;;;;;;3.17;1.80;;;;;;;25.13;47.79;98509.27;1770018;81;26086;-57
2022/06/19 06:37:37;;;;;;;2.08;1.75;;;;;;;25.25;46.73;98507.16;1770270;80;25752;-63
2022/06/19 06:40:09;;;;;;;1.55;1.40;;;;;;;25.25;46.92;98512.77;1770455;81;27607;-58
2022/06/19 06:42:36;;;;;;;3.10;1.72;;;;;;;25.29;47.29;98512.92;1770356;80;25838;-57
2022/06/19 06:45:03;;;;;;;4.83;1.50;;;;;;;25.50;47.57;98508.26;1770251;80;25612;-59
2022/06/19 06:47:29;;;;;;;2.37;1.50;;;;;;;25.74;48.22;98504.80;1770242;80;26095;-63
2022/06/19 06:49:55;;;;;;;2.62;1.57;;;;;;;25.92;47.05;98496.12;1770508;80;25777;-63
2022/06/19 06:52:33;;;;;;;2.35;1.45;;;;;;;26.05;46.63;98500.56;1770275;80;28408;-59
2022/06/19 06:54:59;;;;;;;1.75;1.50;;;;;;;26.13;44.53;98497.04;1770080;80;25523;-62
2022/06/19 06:57:25;;;;;;;1.32;1.22;;;;;;;26.14;44.96;98493.00;1770649;80;25443;-62
2022/06/19 06:59:52;;;;;;;2.33;1.50;;;;;;;26.21;44.78;98494.89;1770420;80;26011;-64
2022/06/19 07:02:18;;;;;;;3.02;1.50;;;;;;;26.28;44.70;98496.20;1770529;80;25396;-63
2022/06/19 07:04:45;;;;;;;2.95;1.65;;;;;;;26.39;43.88;98499.66;1769904;81;27523;-63
2022/06/19 07:07:11;;;;;;;1.65;1.55;;;;;;;26.47;44.43;98504.55;1770036;80;27182;-64
2022/06/19 07:09:38;;;;;;;2.52;1.65;;;;;;;26.63;45.00;98498.87;1770503;81;25411;-64
2022/06/19 07:12:06;;;;;;;3.55;1.70;;;;;;;26.85;44.77;98502.72;1770515;81;26115;-58
2022/06/19 07:14:33;;;;;;;2.60;1.50;;;;;;;27.08;44.60;98498.31;1770543;80;25779;-62
2022/06/19 07:16:59;;;;;;;1.92;1.50;;;;;;;27.13;42.51;98495.78;1770209;81;27409;-64
2022/06/19 07:19:27;;;;;;;2.35;1.70;;;;;;;27.13;43.33;98495.78;1770445;81;25762;-63
2022/06/19 07:21:54;;;;;;;2.35;1.42;;;;;;;27.32;44.06;98496.23;1770082;81;25452;-60
2022/06/19 07:24:20;;;;;;;2.72;1.57;;;;;;;27.49;42.60;98488.62;1769966;81;26143;-57
2022/06/19 07:26:47;;;;;;;2.00;1.70;;;;;;;27.64;42.72;98493.97;1770164;81;25718;-64
2022/06/19 07:29:13;;;;;;;3.42;1.62;;;;;;;27.72;41.27;98490.41;1770213;81;27650;-57
2022/06/19 07:31:40;;;;;;;1.90;1.52;;;;;;;27.84;40.97;98491.76;1770122;81;25687;-64
2022/06/19 07:34:06;;;;;;;3.80;1.67;;;;;;;28.00;41.92;98493.83;1770022;81;25649;-64
2022/06/19 07:36:33;;;;;;;3.77;1.60;;;;;;;28.33;40.74;98490.26;1770117;80;26169;-61
2022/06/19 07:39:00;;;;;;;2.67;1.65;;;;;;;28.41;40.07;98493.09;1770408;80;25724;-63
2022/06/19 07:41:27;;;;;;;1.82;1.52;;;;;;;28.58;41.45;98491.67;1770155;81;27425;-58
2022/06/19 07:43:54;;;;;;;1.95;1.50;;;;;;;28.81;39.29;98492.05;1769885;81;25662;-58
2022/06/19 07:46:21;;;;;;;4.85;1.72;;;;;;;29.01;39.94;98493.38;1770104;81;25762;-64
2022/06/19 07:51:33;;;;;;;1.42;1.30;;;;;;;29.29;38.85;98483.94;1770106;81;26459;-65
2022/06/19 07:54:01;;;;;;;3.83;1.50;;;;;;;29.43;38.84;98477.09;1770224;81;27469;-63
2022/06/19 07:56:28;;;;;;;2.47;1.40;;;;;;;29.57;39.04;98479.34;1765137;80;25672;-63
2022/06/19 07:58:55;;;;;;;2.70;1.47;;;;;;;29.76;39.97;98478.97;1765486;81;25664;-64
2022/06/19 08:01:22;;;;;;;1.80;1.52;;;;;;;30.07;38.48;98482.50;1765087;81;26110;-63
2022/06/19 08:03:49;;;;;;;3.17;1.45;;;;;;;30.13;37.79;98484.29;1765582;81;25648;-64
2022/06/19 08:06:17;;;;;;;3.02;1.40;;;;;;;30.17;36.52;98476.51;1765320;81;28160;-58
2022/06/19 08:08:44;;;;;;;1.35;1.20;;;;;;;30.16;37.87;98475.52;1765082;81;25636;-64
2022/06/19 08:11:10;;;;;;;2.90;1.42;;;;;;;30.26;36.80;98470.80;1765103;80;25640;-61
2022/06/19 08:13:38;;;;;;;2.60;1.30;;;;;;;30.38;38.02;98463.54;1765519;81;26058;-62
2022/06/19 08:16:08;;;;;;;2.55;1.40;;;;;;;30.62;36.73;98468.81;1765351;81;25685;-61
2022/06/19 08:18:36;;;;;;;3.35;1.30;;;;;;;30.50;37.46;98473.23;1744187;81;27451;-60
2022/06/19 08:21:04;;;;;;;2.40;1.57;;;;;;;30.73;37.84;98469.84;1765687;81;25403;-64
2022/06/19 08:23:31;;;;;;;1.50;1.40;;;;;;;30.94;37.97;98464.07;1765511;81;25250;-64
2022/06/19 08:25:59;;;;;;;3.80;1.47;;;;;;;31.20;35.98;98472.44;1765519;81;26008;-63
2022/06/19 08:30:54;;;;;;;2.58;1.40;;;;;;;31.71;36.18;98469.16;1708093;83;25994;-63
2022/06/19 08:33:21;;;;;;;1.82;1.30;;;;;;;31.90;36.66;98476.33;1708220;84;25866;-64
2022/06/19 08:35:52;;;;;;;2.40;1.17;;;;;;;32.00;35.26;98470.89;1708100;84;25735;-64
2022/06/19 08:38:24;;;;;;;1.50;1.20;;;;;;;31.96;36.12;98476.53;1707950;84;26939;-63
2022/06/19 08:41:07;;;;;;;2.17;1.40;;;;;;;32.14;35.36;98478.02;1707648;84;25843;-63
2022/06/19 08:44:01;;;;;;;2.47;1.47;;;;;;;32.52;35.43;98475.32;1707644;84;27411;-59
2022/06/19 08:46:54;;;;;;;2.08;1.37;;;;;;;32.97;36.38;98473.59;1689951;84;25533;-60
2022/06/19 08:49:35;;;;;;;3.02;1.32;;;;;;;33.03;33.88;98474.54;1707436;84;25533;-63
2022/06/19 08:52:16;;;;;;;2.40;1.30;;;;;;;33.26;33.54;98472.34;1708038;84;26050;-63
2022/06/19 08:55:09;;;;;;;2.17;1.30;;;;;;;33.01;32.18;98474.25;1703789;83;25765;-63
2022/06/19 08:58:08;;;;;;;2.50;1.37;;;;;;;32.89;32.69;98476.76;1703202;84;27614;-59
2022/06/19 09:01:00;;;;;;;4.50;1.52;;;;;;;33.00;33.99;98474.06;1703351;84;25512;-64
2022/06/19 09:07:02;;;;;;;1.35;1.17;;;;;;;33.84;33.00;98476.02;1703409;84;25487;-63
2022/06/19 09:09:56;;;;;;;1.80;1.25;;;;;;;33.94;31.08;98478.17;1765724;81;25448;-57
2022/06/19 09:12:58;;;;;;;1.90;1.47;;;;;;;34.12;30.96;98463.09;1770169;80;27842;-63
2022/06/19 09:15:45;;;;;;;2.22;1.27;;;;;;;34.21;32.33;98468.76;1770923;80;25373;-62
2022/06/19 09:18:22;;;;;;;1.47;1.07;;;;;;;34.46;31.57;98460.23;1771550;80;25656;-60
2022/06/19 09:21:09;;;;;;;2.05;1.12;;;;;;;34.46;30.84;98452.50;1770575;80;26011;-62
2022/06/19 09:23:59;;;;;;;1.22;0.90;;;;;;;34.46;29.53;98454.55;1770927;80;25733;-63
2022/06/19 09:26:39;;;;;;;1.50;1.25;;;;;;;34.32;27.62;98446.89;1771354;80;27563;-62
2022/06/19 09:29:26;;;;;;;1.20;1.10;;;;;;;33.96;29.11;98440.13;1772297;80;25701;-63
2022/06/19 09:32:10;;;;;;;2.87;1.12;;;;;;;33.98;28.58;98438.37;1777631;80;25597;-62
2022/06/19 09:34:54;;;;;;;1.90;1.22;;;;;;;34.33;30.41;98439.16;1775494;80;25925;-63
2022/06/19 09:37:57;;;;;;;2.90;1.40;;;;;;;34.51;30.52;98441.86;1774457;80;25634;-61
2022/06/19 09:40:32;;;;;;;3.22;1.37;;;;;;;34.56;27.69;98430.45;1708485;83;27003;-62
2022/06/19 09:43:15;;;;;;;2.90;1.20;;;;;;;34.47;28.51;98443.31;1708816;83;25690;-63
2022/06/19 09:46:02;;;;;;;2.35;1.10;;;;;;;34.70;28.59;98438.91;1707726;84;25612;-61
2022/06/19 09:49:01;;;;;;;2.62;1.22;;;;;;;34.79;29.76;98427.45;1708556;83;25635;-62
2022/06/19 09:51:41;;;;;;;2.15;0.90;;;;;;;34.93;29.22;98416.58;1708555;84;25736;-63
2022/06/19 09:54:35;;;;;;;3.60;1.20;;;;;;;35.28;27.63;98410.23;1708633;84;27670;-62
2022/06/19 09:57:33;;;;;;;4.60;1.30;;;;;;;35.46;29.18;98413.38;1708300;84;25710;-63
2022/06/19 10:00:09;;;;;;;1.90;1.10;;;;;;;35.47;27.26;98414.94;1707820;84;25788;-63
2022/06/19 10:02:46;;;;;;;3.45;1.00;;;;;;;35.14;24.88;98412.44;1708437;84;26084;-63
2022/06/19 10:05:36;;;;;;;3.12;1.10;;;;;;;34.69;25.03;98403.83;1708668;84;25646;-63
2022/06/19 10:08:17;;;;;;;4.62;1.25;;;;;;;34.51;25.95;98403.45;1708802;83;27437;-63
2022/06/19 10:11:11;;;;;;;1.55;1.10;;;;;;;34.56;25.10;98394.88;1708588;84;25762;-63
2022/06/19 10:14:00;;;;;;;2.10;1.00;;;;;;;34.57;26.09;98390.78;1708439;84;25715;-58
2022/06/19 10:16:54;;;;;;;3.58;1.17;;;;;;;34.62;25.65;98387.91;1715111;80;26230;-58
2022/06/19 10:19:26;;;;;;;4.30;1.22;;;;;;;34.86;25.89;98393.56;1785764;80;25739;-58
2022/06/19 10:22:24;;;;;;;5.08;1.20;;;;;;;34.86;25.17;98385.02;1786066;80;27526;-63
2022/06/19 10:25:27;;;;;;;1.98;1.00;;;;;;;34.82;25.78;98375.88;1785950;80;25565;-62
2022/06/19 10:28:22;;;;;;;1.82;1.10;;;;;;;35.16;26.08;98372.22;1785969;80;25643;-64
2022/06/19 10:31:03;;;;;;;2.55;1.00;;;;;;;35.33;25.22;98368.09;1786126;80;26380;-62
2022/06/19 10:33:58;;;;;;;2.65;1.30;;;;;;;35.44;24.26;98370.34;1785813;80;25443;-63
2022/06/19 10:36:53;;;;;;;3.72;1.10;;;;;;;35.34;25.72;98369.69;1786076;80;27460;-60
2022/06/19 10:39:51;;;;;;;2.30;1.00;;;;;;;35.68;26.05;98368.77;1785723;80;25672;-63
2022/06/19 10:42:31;;;;;;;3.60;1.20;;;;;;;35.81;24.94;98369.11;1785915;80;25403;-62
2022/06/19 10:45:12;;;;;;;3.25;1.10;;;;;;;35.69;25.96;98359.59;1785832;80;26772;-61
2022/06/19 10:47:54;;;;;;;3.75;1.20;;;;;;;35.88;24.77;98358.08;1776184;80;25403;-63
2022/06/19 10:50:48;;;;;;;5.20;1.00;;;;;;;35.86;24.27;98354.17;1785923;80;27474;-63
2022/06/19 10:54:00;;;;;;;3.33;1.12;;;;;;;35.78;23.92;98356.65;1786056;80;25672;-64
2022/06/19 10:56:52;;;;;;;5.55;1.32;;;;;;;35.89;24.97;98358.22;1774891;80;25884;-64
2022/06/19 10:59:19;;;;;;;4.20;1.40;;;;;;;35.84;24.73;98354.66;1767571;81;26396;-58
2022/06/19 11:04:54;;;;;;;3.58;1.20;;;;;;;35.79;26.19;98353.30;1767048;81;25745;-61
2022/06/19 11:07:22;;;;;;;3.80;1.20;;;;;;;36.13;24.85;98347.90;1767190;81;25705;-63
2022/06/19 11:09:56;;;;;;;3.47;1.30;;;;;;;36.59;26.38;98350.67;1767613;81;25503;-64
2022/06/19 11:12:37;;;;;;;3.45;0.82;;;;;;;36.73;24.63;98346.81;1767311;81;26003;-59
2022/06/19 11:15:09;;;;;;;3.87;1.40;;;;;;;36.71;24.63;98349.38;1767216;81;25593;-63
2022/06/19 11:17:39;;;;;;;3.55;1.17;;;;;;;36.67;23.80;98351.02;1764754;81;28295;-63
2022/06/19 11:20:28;;;;;;;3.85;1.20;;;;;;;36.73;25.55;98343.33;1767339;81;25417;-64
2022/06/19 11:23:19;;;;;;;;;;;;;;;37.05;25.98;98341.14;1770126;81;25676;-64
2022/06/19 11:26:09;;;;;;;4.45;1.40;;;;;;;37.27;23.72;98338.37;1767421;81;25997;-64
2022/06/19 11:28:44;;;;;;;3.20;1.37;;;;;;;37.25;23.55;98337.45;1767280;81;25555;-63
2022/06/19 11:31:17;;;;;;;3.55;1.20;;;;;;;37.27;24.03;98336.27;1767243;81;27411;-61
2022/06/19 11:33:45;;;;;;;3.60;1.20;;;;;;;37.39;23.53;98333.52;1767027;81;25668;-62
2022/06/19 11:36:31;;;;;;;3.30;1.40;;;;;;;37.47;23.21;98326.69;1767668;81;25715;-64
2022/06/19 11:38:59;;;;;;;3.15;1.50;;;;;;;37.30;22.84;98325.92;1767547;81;26091;-64
2022/06/19 11:41:31;;;;;;;2.35;1.10;;;;;;;37.30;23.65;98315.14;1767087;81;25578;-64
2022/06/19 11:44:14;;;;;;;5.17;1.40;;;;;;;37.19;24.11;98316.59;1766936;81;29562;-64
2022/06/19 11:46:51;;;;;;;4.25;1.40;;;;;;;37.19;24.25;98302.31;1766934;81;25745;-64
2022/06/19 11:49:31;;;;;;;3.95;1.40;;;;;;;37.41;25.12;98300.91;1766615;80;25766;-64
2022/06/19 11:52:08;;;;;;;3.47;1.27;;;;;;;37.73;23.82;98292.30;1770346;80;26085;-63
2022/06/19 11:54:42;;;;;;;5.42;1.52;;;;;;;37.97;22.61;98287.47;1770557;80;25639;-61
2022/06/19 11:57:28;;;;;;;2.55;1.30;;;;;;;37.98;22.93;98291.88;1771960;80;26898;-62
2022/06/19 11:59:57;;;;;;;3.98;1.25;;;;;;;38.12;23.81;98292.34;1772470;80;25918;-58
2022/06/19 12:02:32;;;;;;;;;;;;;;;38.19;22.93;98289.64;1775584;80;25760;-57
2022/06/19 12:05:03;;;;;;;5.15;1.40;;;;;;;38.51;23.41;98285.84;1772892;80;25995;-62
2022/06/19 12:07:34;;;;;;;4.15;1.25;;;;;;;38.97;22.92;98283.80;1772950;80;25658;-57
2022/06/19 12:10:21;;;;;;;2.70;1.30;;;;;;;38.64;21.85;98283.28;1772646;80;27446;-60
2022/06/19 12:12:58;;;;;;;4.35;1.20;;;;;;;38.60;22.61;98283.38;1772518;80;25610;-64